createdAt,value
2022-10-17T00:00:35.585Z,13.00
2022-10-17T00:03:12.896Z,12.23
2022-10-17T00:05:42.150Z,12.77
2022-10-17T00:08:10.061Z,13.52
2022-10-17T00:10:37.338Z,17.98
2022-10-17T00:13:04.197Z,15.50
2022-10-17T00:15:30.887Z,10.35
2022-10-17T00:17:57.551Z,12.07
2022-10-17T00:20:24.861Z,12.30
2022-10-17T00:22:51.791Z,13.20
2022-10-17T00:25:19.241Z,10.52
2022-10-17T00:27:45.878Z,11.38
2022-10-17T00:30:14.404Z,10.95
2022-10-17T00:32:41.374Z,12.13
2022-10-17T00:35:09.331Z,13.55
2022-10-17T00:37:36.167Z,10.88
2022-10-17T00:40:04.299Z,11.48
2022-10-17T00:42:31.245Z,11.10
2022-10-17T00:45:03.688Z,12.93
2022-10-17T00:47:31.209Z,10.43
2022-10-17T00:49:59.238Z,12.00
2022-10-17T00:52:29.152Z,10.63
2022-10-17T00:55:12.675Z,9.15
2022-10-17T00:57:40.072Z,10.85
2022-10-17T01:00:10.082Z,10.07
2022-10-17T01:02:37.221Z,10.32
2022-10-17T01:05:05.234Z,9.40
2022-10-17T01:07:34.913Z,12.25
2022-10-17T01:10:07.322Z,10.63
2022-10-17T01:12:51.364Z,10.15
2022-10-17T01:15:46.055Z,8.45
2022-10-17T01:18:30.793Z,10.65
2022-10-17T01:21:29.869Z,8.90
2022-10-17T01:24:29.691Z,9.25
2022-10-17T01:27:09.744Z,8.70
2022-10-17T01:30:13.461Z,11.07
2022-10-17T01:32:47.668Z,10.85
2022-10-17T01:35:14.198Z,9.73
2022-10-17T01:38:10.462Z,9.27
2022-10-17T01:40:50.966Z,10.48
2022-10-17T01:43:26.046Z,10.38
2022-10-17T01:46:00.687Z,12.50
2022-10-17T01:48:35.141Z,13.07
2022-10-17T01:51:36.074Z,8.68
2022-10-17T01:54:09.760Z,9.80
2022-10-17T01:56:38.846Z,11.20
2022-10-17T01:59:13.943Z,9.90
2022-10-17T02:01:42.641Z,9.63
2022-10-17T02:04:11.382Z,9.43
2022-10-17T02:06:38.387Z,10.73
2022-10-17T02:09:23.061Z,12.63
2022-10-17T02:12:24.900Z,10.82
2022-10-17T02:15:35.018Z,9.77
2022-10-17T02:18:16.751Z,10.13
2022-10-17T02:20:52.273Z,11.05
2022-10-17T02:23:36.280Z,10.32
2022-10-17T02:26:16.336Z,10.02
2022-10-17T02:28:53.326Z,9.30
2022-10-17T02:31:29.189Z,9.40
2022-10-17T02:36:34.752Z,11.95
2022-10-17T02:39:04.174Z,9.63
2022-10-17T02:41:32.972Z,10.00
2022-10-17T02:44:02.592Z,10.18
2022-10-17T02:46:31.026Z,11.07
2022-10-17T02:49:11.646Z,8.98
2022-10-17T02:52:14.191Z,10.98
2022-10-17T02:54:46.779Z,12.68
2022-10-17T02:57:24.601Z,13.50
2022-10-17T02:59:52.201Z,11.63
2022-10-17T03:02:19.042Z,11.27
2022-10-17T03:04:46.778Z,12.20
2022-10-17T03:07:13.876Z,11.70
2022-10-17T03:09:40.520Z,19.27
2022-10-17T03:12:07.180Z,10.73
2022-10-17T03:14:33.803Z,10.70
2022-10-17T03:17:00.598Z,11.65
2022-10-17T03:19:27.260Z,11.40
2022-10-17T03:21:54.498Z,11.63
2022-10-17T03:24:21.082Z,11.68
2022-10-17T03:26:47.736Z,9.02
2022-10-17T03:29:14.743Z,11.52
2022-10-17T03:31:41.481Z,11.75
2022-10-17T03:34:08.226Z,13.27
2022-10-17T03:36:34.845Z,10.07
2022-10-17T03:39:01.429Z,11.27
2022-10-17T03:41:28.075Z,14.88
2022-10-17T03:43:54.863Z,11.48
2022-10-17T03:46:21.477Z,12.70
2022-10-17T03:48:48.133Z,11.60
2022-10-17T03:51:15.477Z,12.10
2022-10-17T03:53:42.078Z,12.38
2022-10-17T03:56:10.728Z,9.65
2022-10-17T03:58:37.374Z,11.27
2022-10-17T04:01:09.139Z,11.68
2022-10-17T04:03:35.844Z,9.65
2022-10-17T04:06:04.071Z,11.93
2022-10-17T04:08:31.122Z,14.50
2022-10-17T04:11:01.560Z,18.60
2022-10-17T04:13:28.796Z,12.88
2022-10-17T04:16:03.902Z,11.90
2022-10-17T04:18:30.683Z,15.02
2022-10-17T04:20:57.624Z,10.95
2022-10-17T04:23:26.816Z,10.82
2022-10-17T04:25:57.426Z,12.77
2022-10-17T04:28:25.083Z,11.15
2022-10-17T04:31:03.303Z,11.07
2022-10-17T04:33:31.922Z,16.05
2022-10-17T04:36:03.865Z,11.98
2022-10-17T04:38:30.835Z,10.85
2022-10-17T04:40:58.627Z,13.63
2022-10-17T04:43:25.410Z,13.13
2022-10-17T04:45:52.121Z,12.60
2022-10-17T04:48:18.756Z,11.38
2022-10-17T04:50:56.357Z,12.02
2022-10-17T04:53:24.016Z,11.05
2022-10-17T04:55:51.328Z,12.82
2022-10-17T04:58:18.248Z,11.88
2022-10-17T05:00:45.641Z,14.07
2022-10-17T05:03:12.501Z,12.98
2022-10-17T05:05:40.589Z,11.18
2022-10-17T05:08:08.985Z,12.32
2022-10-17T05:10:40.079Z,12.27
2022-10-17T05:13:07.394Z,12.88
2022-10-17T05:15:34.740Z,14.10
2022-10-17T05:18:01.751Z,14.30
2022-10-17T05:20:28.600Z,10.82
2022-10-17T05:22:55.628Z,10.95
2022-10-17T05:25:22.361Z,11.00
2022-10-17T05:27:49.408Z,11.50
2022-10-17T05:30:16.070Z,12.93
2022-10-17T05:32:42.766Z,12.15
2022-10-17T05:35:09.537Z,14.90
2022-10-17T05:37:36.264Z,12.43
2022-10-17T05:40:09.428Z,12.98
2022-10-17T05:42:42.712Z,12.38
2022-10-17T05:45:09.786Z,12.23
2022-10-17T05:47:38.040Z,13.85
2022-10-17T05:50:05.580Z,12.32
2022-10-17T05:52:32.579Z,12.85
2022-10-17T05:54:59.489Z,14.88
2022-10-17T05:57:27.198Z,13.02
2022-10-17T05:59:53.792Z,14.02
2022-10-17T06:02:22.031Z,16.30
2022-10-17T06:04:50.155Z,12.93
2022-10-17T06:07:17.032Z,11.88
2022-10-17T06:12:25.566Z,13.63
2022-10-17T06:15:42.391Z,10.88
2022-10-17T06:18:09.344Z,12.07
2022-10-17T06:20:36.013Z,14.85
2022-10-17T06:23:03.047Z,11.85
2022-10-17T06:25:33.167Z,15.43
2022-10-17T06:28:00.237Z,15.25
2022-10-17T06:30:27.489Z,12.85
2022-10-17T06:32:59.446Z,15.63
2022-10-17T06:35:26.272Z,16.77
2022-10-17T06:37:53.316Z,13.77
2022-10-17T06:40:20.154Z,18.27
2022-10-17T06:42:53.345Z,14.95
2022-10-17T06:45:47.636Z,13.25
2022-10-17T06:48:15.103Z,14.20
2022-10-17T06:50:41.779Z,14.50
2022-10-17T06:53:08.431Z,15.32
2022-10-17T06:55:54.186Z,14.40
2022-10-17T06:58:21.425Z,14.57
2022-10-17T07:00:48.141Z,14.27
2022-10-17T07:03:14.852Z,15.07
2022-10-17T07:05:41.487Z,14.32
2022-10-17T07:08:25.985Z,14.10
2022-10-17T07:10:54.122Z,12.57
2022-10-17T07:16:45.638Z,13.13
2022-10-17T07:19:12.392Z,12.07
2022-10-17T07:21:39.459Z,12.15
2022-10-17T07:24:07.645Z,15.18
2022-10-17T07:26:34.254Z,11.15
2022-10-17T07:29:01.893Z,13.70
2022-10-17T07:31:28.776Z,10.88
2022-10-17T07:33:55.509Z,15.10
2022-10-17T07:36:23.897Z,13.38
2022-10-17T07:38:50.608Z,12.18
2022-10-17T07:41:20.812Z,12.13
2022-10-17T07:43:48.598Z,17.25
2022-10-17T07:46:15.795Z,11.98
2022-10-17T07:48:42.474Z,10.35
2022-10-17T07:51:10.557Z,13.80
2022-10-17T07:53:38.690Z,12.55
2022-10-17T07:56:09.370Z,10.90
2022-10-17T07:58:37.122Z,10.75
2022-10-17T08:01:15.699Z,9.85
2022-10-17T08:03:44.642Z,11.25
2022-10-17T08:06:11.643Z,12.98
2022-10-17T08:08:38.717Z,11.60
2022-10-17T08:13:57.295Z,14.98
2022-10-17T08:16:34.888Z,14.55
2022-10-17T08:24:39.578Z,11.80
2022-10-17T08:27:15.512Z,8.98
2022-10-17T08:30:29.852Z,10.25
2022-10-17T08:32:30.854Z,10.70
2022-10-17T08:35:01.984Z,11.55
2022-10-17T08:37:37.099Z,10.52
2022-10-17T08:40:12.680Z,12.20
2022-10-17T08:43:14.714Z,10.68
2022-10-17T08:45:59.559Z,12.80
2022-10-17T08:49:12.116Z,8.88
2022-10-17T08:51:44.792Z,10.05
2022-10-17T08:54:43.022Z,10.35
2022-10-17T08:57:28.513Z,11.70
2022-10-17T09:00:32.736Z,13.63
2022-10-17T09:03:27.175Z,11.13
2022-10-17T09:06:22.477Z,11.65
2022-10-17T09:09:12.531Z,11.90
2022-10-17T09:11:51.008Z,11.15
2022-10-17T09:14:42.805Z,8.95
2022-10-17T09:17:35.202Z,9.65
2022-10-17T09:20:38.394Z,8.98
2022-10-17T09:23:18.073Z,9.88
2022-10-17T09:25:48.323Z,9.38
2022-10-17T09:31:23.104Z,9.40
2022-10-17T09:33:54.681Z,8.75
2022-10-17T09:36:29.719Z,7.50
2022-10-17T09:39:01.906Z,8.75
2022-10-17T09:41:45.885Z,6.93
2022-10-17T09:44:19.643Z,7.18
2022-10-17T09:46:52.450Z,9.65
2022-10-17T09:49:35.826Z,6.00
2022-10-17T09:52:12.553Z,7.40
2022-10-17T09:55:02.694Z,9.70
2022-10-17T09:57:29.739Z,7.45
2022-10-17T10:02:41.792Z,7.30
2022-10-17T10:05:25.351Z,6.28
2022-10-17T10:08:12.846Z,9.82
2022-10-17T10:10:53.642Z,6.53
2022-10-17T10:13:30.429Z,10.70
2022-10-17T10:16:14.683Z,7.78
2022-10-17T10:18:41.664Z,7.95
2022-10-17T10:21:23.550Z,4.82
2022-10-17T10:24:30.865Z,8.88
2022-10-17T10:27:15.283Z,6.68
2022-10-17T10:29:55.262Z,6.82
2022-10-17T10:32:25.209Z,4.25
2022-10-17T10:35:21.528Z,4.63
2022-10-17T10:37:58.879Z,9.27
2022-10-17T10:40:49.050Z,6.53
2022-10-17T10:43:45.707Z,7.30
2022-10-17T10:46:30.626Z,5.28
2022-10-17T10:49:03.456Z,5.80
2022-10-17T10:51:42.585Z,10.02
2022-10-17T10:54:16.714Z,9.43
2022-10-17T10:56:51.271Z,7.32
2022-10-17T10:59:34.658Z,7.07
2022-10-17T11:02:18.724Z,9.95
2022-10-17T11:04:53.104Z,7.97
2022-10-17T11:07:37.043Z,5.68
2022-10-17T11:10:20.686Z,9.10
2022-10-17T11:13:11.206Z,9.02
2022-10-17T11:15:51.426Z,5.57
2022-10-17T11:18:57.194Z,7.88
2022-10-17T11:22:03.869Z,7.15
2022-10-17T11:25:00.435Z,8.32
2022-10-17T11:27:31.872Z,9.70
2022-10-17T11:29:59.157Z,7.55
2022-10-17T11:33:04.262Z,8.35
2022-10-17T11:36:09.523Z,11.93
2022-10-17T11:38:46.391Z,8.82
2022-10-17T11:41:55.502Z,5.43
2022-10-17T11:44:29.901Z,6.97
2022-10-17T11:47:35.797Z,7.82
2022-10-17T11:53:16.830Z,9.85
2022-10-17T11:55:45.462Z,8.00
2022-10-17T12:01:18.109Z,6.95
2022-10-17T12:04:02.991Z,6.38
2022-10-17T12:06:41.568Z,10.18
2022-10-17T12:09:18.414Z,7.35
2022-10-17T12:11:53.919Z,9.15
2022-10-17T12:14:43.588Z,8.00
2022-10-17T12:17:30.711Z,6.82
2022-10-17T12:20:21.728Z,7.00
2022-10-17T12:22:50.167Z,8.55
2022-10-17T12:25:23.955Z,10.45
2022-10-17T12:28:11.388Z,9.00
2022-10-17T12:30:50.763Z,9.30
2022-10-17T12:33:26.830Z,9.35
2022-10-17T12:36:28.072Z,8.95
2022-10-17T12:39:04.140Z,7.53
2022-10-17T12:41:39.755Z,10.13
2022-10-17T12:44:21.709Z,7.82
2022-10-17T12:46:49.583Z,8.05
2022-10-17T12:49:45.694Z,10.63
2022-10-17T12:52:16.883Z,9.82
2022-10-17T12:55:12.667Z,8.20
2022-10-17T12:57:51.504Z,9.23
2022-10-17T13:00:25.571Z,11.73
2022-10-17T13:02:55.186Z,8.00
2022-10-17T13:05:32.909Z,12.85
2022-10-17T13:08:02.315Z,7.38
2022-10-17T13:10:32.672Z,8.13
2022-10-17T13:13:13.018Z,10.40
2022-10-17T13:15:40.526Z,14.15
2022-10-17T13:18:17.492Z,6.72
2022-10-17T13:20:44.186Z,9.52
2022-10-17T13:23:24.556Z,12.35
2022-10-17T13:26:20.762Z,8.60
2022-10-17T13:29:03.391Z,6.63
2022-10-17T13:31:42.090Z,7.88
2022-10-17T13:34:20.247Z,7.95
2022-10-17T13:36:50.302Z,10.60
2022-10-17T13:39:38.553Z,12.70
2022-10-17T13:42:28.844Z,9.68
2022-10-17T13:44:57.761Z,8.43
2022-10-17T13:47:33.559Z,9.00
2022-10-17T13:50:43.728Z,10.18
2022-10-17T13:53:50.221Z,10.07
2022-10-17T13:56:28.340Z,9.60
2022-10-17T13:59:08.324Z,10.23
2022-10-17T14:01:35.302Z,10.55
2022-10-17T14:04:08.843Z,9.73
2022-10-17T14:06:49.267Z,8.98
2022-10-17T14:09:31.373Z,9.10
2022-10-17T14:12:00.818Z,9.65
2022-10-17T14:14:29.112Z,10.48
2022-10-17T14:16:57.110Z,12.07
2022-10-17T14:19:25.625Z,9.45
2022-10-17T14:22:04.356Z,9.50
2022-10-17T14:24:31.815Z,9.10
2022-10-17T14:27:01.831Z,11.70
2022-10-17T14:29:38.000Z,9.80
2022-10-17T14:32:12.387Z,15.45
2022-10-17T14:34:40.841Z,11.88
2022-10-17T14:37:12.990Z,11.70
2022-10-17T14:39:39.843Z,10.07
2022-10-17T14:42:06.645Z,12.45
2022-10-17T14:44:35.895Z,11.85
2022-10-17T14:47:38.014Z,13.57
2022-10-17T14:50:08.540Z,14.73
2022-10-17T14:52:35.746Z,14.80
2022-10-17T14:55:26.229Z,10.70
2022-10-17T14:58:05.327Z,11.82
2022-10-17T15:00:32.075Z,12.85
2022-10-17T15:02:58.793Z,11.52
2022-10-17T15:05:25.696Z,12.77
2022-10-17T15:07:52.472Z,12.13
2022-10-17T15:10:27.517Z,13.77
2022-10-17T15:12:59.151Z,13.68
2022-10-17T15:15:32.444Z,14.98
2022-10-17T15:17:59.601Z,11.27
2022-10-17T15:20:29.499Z,11.57
2022-10-17T15:23:01.732Z,12.48
2022-10-17T15:25:31.064Z,12.07
2022-10-17T15:28:09.129Z,11.73
2022-10-17T15:30:36.929Z,12.77
2022-10-17T15:33:04.123Z,12.30
2022-10-17T15:35:31.401Z,10.85
2022-10-17T15:37:58.446Z,10.55
2022-10-17T15:40:30.670Z,14.80
2022-10-17T15:42:58.103Z,14.18
2022-10-17T15:45:25.054Z,12.55
2022-10-17T15:47:54.792Z,13.30
2022-10-17T15:50:21.950Z,12.15
2022-10-17T15:52:51.138Z,17.70
2022-10-17T15:55:18.834Z,13.63
2022-10-17T15:57:47.536Z,17.23
2022-10-17T16:00:23.122Z,14.90
2022-10-17T16:02:51.044Z,12.50
2022-10-17T16:05:23.624Z,14.65
2022-10-17T16:07:53.297Z,13.98
2022-10-17T16:10:20.803Z,14.88
2022-10-17T16:12:50.151Z,16.98
2022-10-17T16:15:20.529Z,16.85
2022-10-17T16:17:47.154Z,17.40
2022-10-17T16:20:14.311Z,17.15
2022-10-17T16:22:43.111Z,18.27
2022-10-17T16:25:21.203Z,16.02
2022-10-17T16:27:49.630Z,15.23
2022-10-17T16:30:17.130Z,14.10
2022-10-17T16:32:44.134Z,15.82
2022-10-17T16:35:17.120Z,14.32
2022-10-17T16:37:43.806Z,15.35
2022-10-17T16:40:11.357Z,15.73
2022-10-17T16:42:38.013Z,13.25
2022-10-17T16:45:05.447Z,14.20
2022-10-17T16:47:32.166Z,15.00
2022-10-17T16:49:58.858Z,13.73
2022-10-17T16:52:25.700Z,16.15
2022-10-17T16:54:52.487Z,15.57
2022-10-17T16:57:19.358Z,15.70
2022-10-17T16:59:49.038Z,16.10
2022-10-17T17:02:18.906Z,18.30
2022-10-17T17:04:48.042Z,14.57
2022-10-17T17:07:14.717Z,15.52
2022-10-17T17:12:47.639Z,18.70
2022-10-17T17:15:58.369Z,15.20
2022-10-17T17:18:25.457Z,14.85
2022-10-17T17:20:52.178Z,15.20
2022-10-17T17:23:18.932Z,17.08
2022-10-17T17:25:45.722Z,18.33
2022-10-17T17:28:22.062Z,15.32
2022-10-17T17:30:48.861Z,16.83
2022-10-17T17:33:15.552Z,17.48
2022-10-17T17:35:42.213Z,15.05
2022-10-17T17:38:09.361Z,18.30
2022-10-17T17:40:36.294Z,16.38
2022-10-17T17:43:03.314Z,15.98
2022-10-17T17:45:30.272Z,16.88
2022-10-17T17:47:56.908Z,14.98
2022-10-17T17:50:23.710Z,17.33
2022-10-17T17:52:51.292Z,17.23
2022-10-17T17:55:18.062Z,17.63
2022-10-17T17:57:44.867Z,15.65
2022-10-17T18:00:12.223Z,17.73
2022-10-17T18:02:42.160Z,17.55
2022-10-17T18:05:11.021Z,15.95
2022-10-17T18:07:38.287Z,18.48
2022-10-17T18:10:07.011Z,18.10
2022-10-17T18:12:34.831Z,18.85
2022-10-17T18:15:03.290Z,21.05
2022-10-17T18:17:30.172Z,22.58
2022-10-17T18:19:56.815Z,19.67
2022-10-17T18:22:26.847Z,22.30
2022-10-17T18:24:53.640Z,21.85
2022-10-17T18:30:00.991Z,19.75
2022-10-17T18:32:31.378Z,25.52
2022-10-17T18:34:58.716Z,22.10
2022-10-17T18:37:25.532Z,21.95
2022-10-17T18:39:54.453Z,22.77
2022-10-17T18:43:04.590Z,22.13
2022-10-17T18:45:31.508Z,21.27
2022-10-17T18:47:58.477Z,22.30
2022-10-17T18:50:40.232Z,22.02
2022-10-17T18:53:15.953Z,20.77
2022-10-17T18:58:21.822Z,30.60
2022-10-17T19:00:50.417Z,20.10
2022-10-17T19:03:18.801Z,24.95
2022-10-17T19:05:46.367Z,18.83
2022-10-17T19:08:14.899Z,22.80
2022-10-17T19:10:42.984Z,23.05
2022-10-17T19:13:11.780Z,21.30
2022-10-17T19:19:13.933Z,20.33
2022-10-17T19:24:52.764Z,22.88
2022-10-17T19:27:31.485Z,22.08
2022-10-17T19:29:58.409Z,22.02
2022-10-17T19:32:25.061Z,20.27
2022-10-17T19:34:51.685Z,21.08
2022-10-17T19:37:18.495Z,19.67
2022-10-17T19:39:45.167Z,18.55
2022-10-17T19:42:11.810Z,19.05
2022-10-17T19:47:56.377Z,17.38
2022-10-17T19:51:08.970Z,20.75
2022-10-17T19:54:24.775Z,20.48
2022-10-17T19:58:18.603Z,19.00
2022-10-17T20:00:57.498Z,18.42
2022-10-17T20:04:35.589Z,21.88
2022-10-17T20:11:58.251Z,20.85
2022-10-17T20:50:56.855Z,24.92
2022-10-17T20:53:37.509Z,22.55
2022-10-17T20:56:12.506Z,22.77
2022-10-17T20:58:39.857Z,23.30
2022-10-17T21:01:13.639Z,26.75
2022-10-17T21:03:46.381Z,22.17
2022-10-17T21:06:20.645Z,22.85
2022-10-17T21:08:58.637Z,23.52
2022-10-17T21:15:37.503Z,21.98
2022-10-17T21:18:04.214Z,27.95
2022-10-17T21:20:40.603Z,19.80
2022-10-17T21:23:11.859Z,22.92
2022-10-17T21:25:57.436Z,27.60
2022-10-17T21:28:25.356Z,23.33
2022-10-17T21:31:34.082Z,25.48
2022-10-17T21:38:09.870Z,26.50
2022-10-17T22:04:33.161Z,20.77
2022-10-17T22:07:02.805Z,24.27
2022-10-17T22:09:31.724Z,22.73
2022-10-17T22:14:49.165Z,21.58
2022-10-17T22:17:19.471Z,20.55
2022-10-17T22:22:39.297Z,19.33
2022-10-17T22:25:31.517Z,24.20
2022-10-17T22:28:01.616Z,22.88
2022-10-17T22:30:32.889Z,24.02
2022-10-17T22:33:02.707Z,24.08
2022-10-17T22:35:41.933Z,23.85
2022-10-17T22:38:09.049Z,21.75
2022-10-17T22:40:36.105Z,24.48
2022-10-17T22:43:04.044Z,26.77
2022-10-17T22:45:31.218Z,27.58
2022-10-17T22:47:58.061Z,31.60
2022-10-17T22:50:41.944Z,32.97
2022-10-17T22:53:12.425Z,28.75
2022-10-17T22:55:42.042Z,28.48
2022-10-17T22:58:14.906Z,31.40
2022-10-17T23:00:46.756Z,25.30
2022-10-17T23:03:20.450Z,27.35
2022-10-17T23:05:47.942Z,25.35
2022-10-17T23:08:24.662Z,25.73
2022-10-17T23:10:54.250Z,26.40
2022-10-17T23:13:43.645Z,27.00
2022-10-17T23:16:14.958Z,22.70
2022-10-17T23:18:58.753Z,26.33
2022-10-17T23:21:50.972Z,25.73
2022-10-17T23:24:23.317Z,30.65
2022-10-17T23:27:03.812Z,25.25
2022-10-17T23:29:34.689Z,25.83
2022-10-17T23:34:43.376Z,25.05
2022-10-17T23:37:11.674Z,27.95
2022-10-17T23:39:49.461Z,31.27
2022-10-17T23:42:20.012Z,26.90
2022-10-17T23:44:50.512Z,26.48
2022-10-17T23:47:23.900Z,25.38
2022-10-17T23:49:53.621Z,25.23
2022-10-17T23:52:26.791Z,24.63
2022-10-17T23:55:05.482Z,24.65
2022-10-17T23:57:56.018Z,27.45
